createdAt,value
2018-07-26T00:00:54.312Z,3.13
2018-07-26T00:03:22.863Z,3.40
2018-07-26T00:05:52.226Z,3.60
2018-07-26T00:08:21.728Z,3.60
2018-07-26T00:10:50.351Z,3.87
2018-07-26T00:13:18.904Z,4.10
2018-07-26T00:15:47.472Z,3.97
2018-07-26T00:18:16.080Z,4.43
2018-07-26T00:20:44.651Z,3.57
2018-07-26T00:23:13.284Z,5.30
2018-07-26T00:25:41.856Z,4.50
2018-07-26T00:28:10.427Z,4.13
2018-07-26T00:30:39.122Z,4.07
2018-07-26T00:33:07.732Z,4.47
2018-07-26T00:35:36.276Z,3.70
2018-07-26T00:38:05.048Z,4.47
2018-07-26T00:40:33.664Z,4.03
2018-07-26T00:43:02.204Z,4.10
2018-07-26T00:45:31.895Z,4.17
2018-07-26T00:48:00.462Z,5.10
2018-07-26T00:50:29.358Z,4.00
2018-07-26T00:52:57.987Z,3.93
2018-07-26T00:55:26.535Z,3.60
2018-07-26T00:57:55.320Z,4.00
2018-07-26T01:00:24.013Z,3.90
2018-07-26T01:02:52.588Z,3.90
2018-07-26T01:05:21.607Z,4.60
2018-07-26T01:07:50.330Z,4.23
2018-07-26T01:10:18.948Z,4.50
2018-07-26T01:12:47.608Z,4.13
2018-07-26T01:15:17.575Z,4.73
2018-07-26T01:17:46.190Z,4.40
2018-07-26T01:20:14.771Z,4.27
2018-07-26T01:22:43.493Z,4.50
2018-07-26T01:25:12.350Z,4.20
2018-07-26T01:27:41.123Z,4.40
2018-07-26T01:30:09.687Z,4.37
2018-07-26T01:32:38.271Z,3.50
2018-07-26T01:35:06.985Z,4.37
2018-07-26T01:37:35.605Z,4.00
2018-07-26T01:40:04.314Z,4.90
2018-07-26T01:42:42.667Z,4.53
2018-07-26T01:45:11.760Z,4.37
2018-07-26T01:47:40.363Z,4.60
2018-07-26T01:50:08.950Z,4.40
2018-07-26T01:52:37.883Z,3.93
2018-07-26T01:55:06.435Z,4.60
2018-07-26T01:57:35.102Z,3.63
2018-07-26T02:00:03.727Z,4.60
2018-07-26T02:02:32.635Z,5.80
2018-07-26T02:05:01.205Z,4.20
2018-07-26T02:07:30.705Z,4.50
2018-07-26T02:09:59.256Z,4.40
2018-07-26T02:12:27.880Z,5.13
2018-07-26T02:14:56.451Z,4.93
2018-07-26T02:17:25.013Z,4.00
2018-07-26T02:19:53.601Z,3.90
2018-07-26T02:22:22.162Z,4.00
2018-07-26T02:24:50.727Z,4.67
2018-07-26T02:27:20.204Z,4.53
2018-07-26T02:29:49.071Z,4.10
2018-07-26T02:32:17.700Z,3.90
2018-07-26T02:34:46.350Z,4.73
2018-07-26T02:37:15.352Z,4.60
2018-07-26T02:39:43.926Z,4.50
2018-07-26T02:42:12.497Z,4.03
2018-07-26T02:44:41.240Z,4.37
2018-07-26T02:47:10.024Z,5.10
2018-07-26T02:49:38.585Z,4.33
2018-07-26T02:52:07.210Z,4.03
2018-07-26T02:54:35.760Z,4.60
2018-07-26T02:57:04.328Z,3.90
2018-07-26T02:59:32.916Z,4.63
2018-07-26T03:02:01.486Z,4.30
2018-07-26T03:04:30.048Z,5.53
2018-07-26T03:06:58.608Z,4.57
2018-07-26T03:09:27.294Z,5.30
2018-07-26T03:11:55.815Z,5.53
2018-07-26T03:14:24.428Z,5.80
2018-07-26T03:16:52.984Z,5.77
2018-07-26T03:19:21.537Z,6.00
2018-07-26T03:21:50.095Z,4.77
2018-07-26T03:24:18.693Z,4.73
2018-07-26T03:26:47.435Z,4.30
2018-07-26T03:29:16.320Z,5.07
2018-07-26T03:31:44.950Z,4.97
2018-07-26T03:34:13.612Z,5.33
2018-07-26T03:36:42.284Z,4.40
2018-07-26T03:39:17.603Z,4.80
2018-07-26T03:41:46.259Z,4.60
2018-07-26T03:44:16.996Z,4.53
2018-07-26T03:46:46.191Z,4.77
2018-07-26T03:49:15.294Z,3.87
2018-07-26T03:51:43.868Z,5.40
2018-07-26T03:54:12.492Z,9.93
2018-07-26T03:56:41.065Z,9.50
2018-07-26T03:59:09.729Z,8.50
2018-07-26T04:01:38.433Z,7.63
2018-07-26T04:04:07.767Z,5.70
2018-07-26T04:06:37.099Z,5.63
2018-07-26T04:09:12.343Z,5.27
2018-07-26T04:11:41.447Z,5.43
2018-07-26T04:14:10.082Z,4.60
2018-07-26T04:16:38.631Z,4.47
2018-07-26T04:19:08.059Z,4.90
2018-07-26T04:21:36.876Z,4.97
2018-07-26T04:24:05.605Z,4.47
2018-07-26T04:26:34.459Z,4.77
2018-07-26T04:29:03.214Z,4.70
2018-07-26T04:31:32.096Z,4.73
2018-07-26T04:34:00.679Z,5.17
2018-07-26T04:36:29.228Z,4.20
2018-07-26T04:38:57.812Z,4.77
2018-07-26T04:41:26.560Z,5.10
2018-07-26T04:43:55.327Z,4.17
2018-07-26T04:46:23.915Z,4.80
2018-07-26T04:48:53.208Z,5.00
2018-07-26T04:51:21.776Z,4.87
2018-07-26T04:53:50.324Z,4.80
2018-07-26T04:56:18.937Z,4.67
2018-07-26T04:58:47.477Z,4.93
2018-07-26T05:01:16.085Z,6.17
2018-07-26T05:03:44.628Z,5.60
2018-07-26T05:06:13.192Z,4.80
2018-07-26T05:08:41.812Z,5.90
2018-07-26T05:11:11.900Z,5.73
2018-07-26T05:13:40.549Z,5.30
2018-07-26T05:16:09.155Z,4.60
2018-07-26T05:18:37.816Z,4.20
2018-07-26T05:21:06.577Z,5.20
2018-07-26T05:23:35.232Z,4.70
2018-07-26T05:26:03.868Z,4.60
2018-07-26T05:28:32.463Z,4.70
2018-07-26T05:31:01.100Z,4.10
2018-07-26T05:33:29.788Z,4.53
2018-07-26T05:35:58.350Z,3.87
2018-07-26T05:38:26.924Z,4.60
2018-07-26T05:40:55.544Z,4.33
2018-07-26T05:43:24.229Z,4.70
2018-07-26T05:45:52.780Z,4.90
2018-07-26T05:48:21.379Z,4.53
2018-07-26T05:50:49.989Z,5.67
2018-07-26T05:53:18.634Z,4.73
2018-07-26T05:55:47.155Z,4.47
2018-07-26T05:58:15.721Z,4.93
2018-07-26T06:00:44.294Z,4.67
2018-07-26T06:03:13.939Z,4.70
2018-07-26T06:05:43.212Z,4.53
2018-07-26T06:08:12.173Z,5.33
2018-07-26T06:10:40.740Z,4.80
2018-07-26T06:13:09.389Z,4.67
2018-07-26T06:15:37.933Z,5.00
2018-07-26T06:18:06.669Z,5.13
2018-07-26T06:20:35.372Z,4.30
2018-07-26T06:23:03.951Z,4.70
2018-07-26T06:25:32.667Z,5.00
2018-07-26T06:28:01.370Z,4.93
2018-07-26T06:30:29.940Z,5.60
2018-07-26T06:32:58.529Z,5.23
2018-07-26T06:35:28.773Z,5.30
2018-07-26T06:37:57.389Z,5.50
2018-07-26T06:40:26.286Z,5.23
2018-07-26T06:42:55.393Z,5.17
2018-07-26T06:45:24.006Z,5.10
2018-07-26T06:47:52.604Z,5.73
2018-07-26T06:50:21.160Z,4.77
2018-07-26T06:52:49.904Z,5.83
2018-07-26T06:55:20.162Z,6.00
2018-07-26T06:57:49.155Z,5.30
2018-07-26T07:00:17.741Z,5.03
2018-07-26T07:02:46.329Z,5.10
2018-07-26T07:05:15.959Z,5.67
2018-07-26T07:07:44.720Z,5.83
2018-07-26T07:10:13.399Z,5.07
2018-07-26T07:12:41.958Z,5.70
2018-07-26T07:15:12.496Z,5.07
2018-07-26T07:17:41.075Z,5.37
2018-07-26T07:20:10.111Z,5.33
2018-07-26T07:22:38.860Z,5.87
2018-07-26T07:25:07.606Z,5.20
2018-07-26T07:27:36.256Z,6.23
2018-07-26T07:30:06.660Z,6.30
2018-07-26T07:32:35.222Z,5.97
2018-07-26T07:35:03.865Z,5.70
2018-07-26T07:37:32.420Z,5.60
2018-07-26T07:40:01.133Z,5.63
2018-07-26T07:42:29.851Z,6.33
2018-07-26T07:44:58.400Z,5.60
2018-07-26T07:47:27.106Z,5.73
2018-07-26T07:49:55.693Z,6.13
2018-07-26T07:52:24.383Z,7.10
2018-07-26T07:54:52.929Z,6.70
2018-07-26T07:57:21.540Z,5.93
2018-07-26T07:59:50.188Z,6.60
2018-07-26T08:02:18.757Z,6.77
2018-07-26T08:04:47.392Z,6.50
2018-07-26T08:07:15.978Z,6.40
2018-07-26T08:09:44.609Z,5.93
2018-07-26T08:12:13.925Z,5.40
2018-07-26T08:14:42.485Z,5.57
2018-07-26T08:17:11.300Z,5.90
2018-07-26T08:19:39.840Z,6.70
2018-07-26T08:22:08.444Z,5.50
2018-07-26T08:24:37.032Z,7.17
2018-07-26T08:27:05.753Z,6.30
2018-07-26T08:29:34.431Z,7.27
2018-07-26T08:32:03.029Z,6.80
2018-07-26T08:34:31.672Z,6.87
2018-07-26T08:37:00.232Z,6.37
2018-07-26T08:39:28.805Z,6.40
2018-07-26T08:41:57.443Z,5.27
2018-07-26T08:44:26.013Z,6.40
2018-07-26T08:46:54.601Z,6.83
2018-07-26T08:49:23.279Z,7.13
2018-07-26T08:51:51.837Z,6.80
2018-07-26T08:54:20.452Z,7.50
2018-07-26T08:56:49.064Z,7.00
2018-07-26T08:59:17.711Z,7.27
2018-07-26T09:01:46.272Z,7.20
2018-07-26T09:04:14.830Z,7.30
2018-07-26T09:06:43.383Z,8.13
2018-07-26T09:09:13.769Z,6.23
2018-07-26T09:11:42.445Z,8.10
2018-07-26T09:14:11.120Z,7.90
2018-07-26T09:16:39.809Z,8.97
2018-07-26T09:19:08.714Z,8.23
2018-07-26T09:21:37.284Z,6.70
2018-07-26T09:24:05.942Z,6.87
2018-07-26T09:26:37.641Z,7.27
2018-07-26T09:29:06.397Z,7.37
2018-07-26T09:31:34.987Z,7.00
2018-07-26T09:34:07.048Z,6.27
2018-07-26T09:36:37.774Z,6.40
2018-07-26T09:39:15.667Z,6.20
2018-07-26T09:41:44.437Z,6.00
2018-07-26T09:44:13.062Z,6.03
2018-07-26T09:46:41.644Z,7.03
2018-07-26T09:49:10.432Z,7.00
2018-07-26T09:51:39.189Z,7.23
2018-07-26T09:54:08.019Z,6.30
2018-07-26T09:56:36.624Z,7.60
2018-07-26T09:59:05.286Z,6.50
2018-07-26T10:01:35.332Z,7.43
2018-07-26T10:04:03.877Z,6.40
2018-07-26T10:06:33.615Z,7.63
2018-07-26T10:09:02.210Z,8.10
2018-07-26T10:11:33.268Z,6.30
2018-07-26T10:14:01.816Z,5.90
2018-07-26T10:16:30.567Z,7.80
2018-07-26T10:18:59.544Z,7.00
2018-07-26T10:21:28.139Z,6.53
2018-07-26T10:23:56.809Z,6.70
2018-07-26T10:26:25.367Z,6.63
2018-07-26T10:28:53.917Z,5.77
2018-07-26T10:31:22.528Z,6.00
2018-07-26T10:33:51.160Z,6.77
2018-07-26T10:36:19.845Z,6.10
2018-07-26T10:38:48.437Z,5.73
2018-07-26T10:41:17.056Z,7.20
2018-07-26T10:43:45.833Z,6.90
2018-07-26T10:46:14.440Z,7.20
2018-07-26T10:48:43.303Z,5.80
2018-07-26T10:51:13.351Z,6.80
2018-07-26T10:53:41.996Z,6.47
2018-07-26T10:56:10.582Z,7.43
2018-07-26T10:58:39.174Z,6.63
2018-07-26T11:01:08.299Z,8.43
2018-07-26T11:03:37.028Z,8.70
2018-07-26T11:06:05.932Z,7.20
2018-07-26T11:08:34.536Z,7.33
2018-07-26T11:11:03.196Z,7.50
2018-07-26T11:13:31.903Z,7.60
2018-07-26T11:16:00.508Z,8.40
2018-07-26T11:18:29.078Z,7.60
2018-07-26T11:20:57.655Z,7.33
2018-07-26T11:23:26.260Z,8.77
2018-07-26T11:25:54.831Z,7.90
2018-07-26T11:28:23.407Z,8.33
2018-07-26T11:30:52.002Z,8.93
2018-07-26T11:33:20.571Z,8.30
2018-07-26T11:35:49.162Z,8.10
2018-07-26T11:38:17.730Z,8.30
2018-07-26T11:40:46.356Z,8.53
2018-07-26T11:43:15.029Z,7.40
2018-07-26T11:45:43.696Z,8.17
2018-07-26T11:48:12.283Z,8.70
2018-07-26T11:50:40.908Z,7.70
2018-07-26T11:53:09.518Z,7.43
2018-07-26T11:55:38.096Z,6.70
2018-07-26T11:58:06.657Z,6.80
2018-07-26T12:00:35.269Z,7.37
2018-07-26T12:03:03.846Z,6.40
2018-07-26T12:05:32.436Z,6.43
2018-07-26T12:08:01.743Z,6.70
2018-07-26T12:10:30.356Z,6.57
2018-07-26T12:12:59.804Z,8.07
2018-07-26T12:15:29.069Z,6.97
2018-07-26T12:17:57.641Z,7.40
2018-07-26T12:20:26.205Z,7.03
2018-07-26T12:22:54.766Z,6.10
2018-07-26T12:25:23.330Z,6.97
2018-07-26T12:27:51.903Z,6.33
2018-07-26T12:30:20.448Z,5.73
2018-07-26T12:32:49.006Z,6.07
2018-07-26T12:35:17.612Z,6.57
2018-07-26T12:37:46.188Z,6.87
2018-07-26T12:40:14.760Z,7.53
2018-07-26T12:42:43.356Z,6.10
2018-07-26T12:45:12.156Z,7.87
2018-07-26T12:47:40.865Z,6.90
2018-07-26T12:50:09.626Z,6.27
2018-07-26T12:52:38.432Z,6.90
2018-07-26T12:55:07.069Z,5.90
2018-07-26T12:57:35.646Z,9.90
2018-07-26T13:00:04.875Z,3.87
2018-07-26T13:02:33.484Z,5.47
2018-07-26T13:05:02.219Z,6.70
2018-07-26T13:07:30.801Z,7.47
2018-07-26T13:09:59.393Z,6.73
2018-07-26T13:12:27.976Z,5.60
2018-07-26T13:14:56.517Z,5.17
2018-07-26T13:17:25.091Z,7.10
2018-07-26T13:19:53.656Z,6.03
2018-07-26T13:22:22.496Z,5.97
2018-07-26T13:24:51.771Z,5.73
2018-07-26T13:27:20.452Z,5.47
2018-07-26T13:29:48.885Z,6.43
2018-07-26T13:32:17.484Z,6.47
2018-07-26T13:34:46.080Z,6.10
2018-07-26T13:37:14.687Z,6.50
2018-07-26T13:39:43.787Z,6.17
2018-07-26T13:42:12.429Z,6.63
2018-07-26T13:44:41.257Z,7.07
2018-07-26T13:47:09.855Z,6.80
2018-07-26T13:49:38.414Z,6.13
2018-07-26T13:52:07.332Z,7.40
2018-07-26T13:54:36.044Z,7.40
2018-07-26T13:57:04.656Z,7.33
2018-07-26T13:59:33.315Z,7.87
2018-07-26T14:02:01.896Z,7.00
2018-07-26T14:04:30.641Z,6.90
2018-07-26T14:06:59.222Z,6.60
2018-07-26T14:09:29.741Z,8.73
2018-07-26T14:11:58.352Z,7.90
2018-07-26T14:14:26.941Z,7.30
2018-07-26T14:16:55.755Z,6.73
2018-07-26T14:19:24.357Z,6.70
2018-07-26T14:21:52.963Z,7.47
2018-07-26T14:24:23.531Z,6.77
2018-07-26T14:26:52.860Z,6.53
2018-07-26T14:29:22.818Z,6.40
2018-07-26T14:31:51.451Z,6.37
2018-07-26T14:34:20.068Z,6.10
2018-07-26T14:36:48.659Z,5.70
2018-07-26T14:39:17.242Z,6.40
2018-07-26T14:41:46.074Z,6.10
2018-07-26T14:44:14.664Z,6.57
2018-07-26T14:46:43.719Z,6.43
2018-07-26T14:49:12.481Z,7.37
2018-07-26T14:51:41.074Z,6.37
2018-07-26T14:54:09.646Z,5.43
2018-07-26T14:56:38.253Z,5.70
2018-07-26T14:59:06.877Z,5.63
2018-07-26T15:01:35.571Z,5.67
2018-07-26T15:04:04.554Z,5.00
2018-07-26T15:06:33.275Z,5.70
2018-07-26T15:09:01.932Z,6.53
2018-07-26T15:11:30.696Z,5.97
2018-07-26T15:13:59.256Z,6.03
2018-07-26T15:16:27.860Z,6.57
2018-07-26T15:18:56.467Z,6.80
2018-07-26T15:21:25.164Z,6.13
2018-07-26T15:23:53.754Z,5.57
2018-07-26T15:26:22.576Z,6.73
2018-07-26T15:28:51.104Z,7.07
2018-07-26T15:31:19.847Z,6.30
2018-07-26T15:33:48.486Z,6.10
2018-07-26T15:36:17.270Z,5.37
2018-07-26T15:38:45.836Z,5.00
2018-07-26T15:41:14.669Z,5.60
2018-07-26T15:43:43.360Z,6.53
2018-07-26T15:46:11.984Z,6.57
2018-07-26T15:48:40.697Z,6.03
2018-07-26T15:51:09.347Z,6.50
2018-07-26T15:53:37.914Z,5.40
2018-07-26T15:56:06.884Z,6.00
2018-07-26T15:58:35.514Z,5.73
2018-07-26T16:01:04.177Z,5.87
2018-07-26T16:03:34.140Z,6.50
2018-07-26T16:06:03.886Z,5.73
2018-07-26T16:08:32.904Z,5.50
2018-07-26T16:11:01.641Z,6.57
2018-07-26T16:13:30.173Z,5.40
2018-07-26T16:15:58.786Z,6.37
2018-07-26T16:18:27.468Z,6.07
2018-07-26T16:20:56.090Z,6.03
2018-07-26T16:23:25.140Z,5.10
2018-07-26T16:25:53.921Z,6.63
2018-07-26T16:28:22.515Z,6.47
2018-07-26T16:30:51.125Z,5.90
2018-07-26T16:33:19.890Z,6.13
2018-07-26T16:35:48.488Z,6.03
2018-07-26T16:38:17.325Z,6.80
2018-07-26T16:40:46.127Z,6.97
2018-07-26T16:43:14.845Z,8.80
2018-07-26T16:45:43.455Z,7.13
2018-07-26T16:48:12.369Z,6.80
2018-07-26T16:50:41.142Z,6.97
2018-07-26T16:53:09.896Z,7.87
2018-07-26T16:55:38.691Z,7.67
2018-07-26T16:58:07.300Z,6.57
2018-07-26T17:00:36.363Z,7.63
2018-07-26T17:03:05.301Z,7.30
2018-07-26T17:05:33.886Z,7.70
2018-07-26T17:08:02.522Z,7.47
2018-07-26T17:10:31.190Z,7.10
2018-07-26T17:12:59.820Z,6.83
2018-07-26T17:15:28.599Z,6.80
2018-07-26T17:17:57.199Z,6.57
2018-07-26T17:20:26.174Z,7.03
2018-07-26T17:22:54.746Z,7.50
2018-07-26T17:25:26.844Z,7.30
2018-07-26T17:27:56.487Z,7.00
2018-07-26T17:30:25.201Z,7.20
2018-07-26T17:32:53.869Z,8.13
2018-07-26T17:35:22.464Z,8.50
2018-07-26T17:37:51.295Z,8.83
2018-07-26T17:40:19.952Z,8.50
2018-07-26T17:42:48.519Z,8.03
2018-07-26T17:45:17.166Z,9.00
2018-07-26T17:47:46.009Z,10.73
2018-07-26T17:50:14.634Z,7.90
2018-07-26T17:52:43.313Z,8.60
2018-07-26T17:55:11.975Z,8.60
2018-07-26T17:57:41.169Z,7.77
2018-07-26T18:00:12.137Z,11.57
2018-07-26T18:02:40.899Z,16.23
2018-07-26T18:05:09.949Z,11.80
2018-07-26T18:07:38.544Z,9.77
2018-07-26T18:10:07.963Z,9.03
2018-07-26T18:12:36.559Z,9.27
2018-07-26T18:15:06.971Z,7.67
2018-07-26T18:17:35.595Z,8.10
2018-07-26T18:20:05.023Z,7.93
2018-07-26T18:22:33.725Z,7.60
2018-07-26T18:25:02.393Z,7.10
2018-07-26T18:27:31.547Z,7.70
2018-07-26T18:30:00.151Z,8.07
2018-07-26T18:32:30.031Z,7.00
2018-07-26T18:34:58.603Z,7.73
2018-07-26T18:37:27.170Z,6.80
2018-07-26T18:39:55.803Z,7.43
2018-07-26T18:42:26.531Z,9.53
2018-07-26T18:44:55.137Z,8.17
2018-07-26T18:47:23.800Z,8.87
2018-07-26T18:49:52.839Z,7.73
2018-07-26T18:52:21.408Z,7.00
2018-07-26T18:54:50.425Z,8.00
2018-07-26T18:57:19.001Z,7.00
2018-07-26T18:59:47.571Z,7.13
2018-07-26T19:02:16.178Z,8.30
2018-07-26T19:04:44.808Z,7.33
2018-07-26T19:07:14.326Z,8.37
2018-07-26T19:09:42.874Z,7.57
2018-07-26T19:12:11.663Z,7.83
2018-07-26T19:14:40.242Z,7.83
2018-07-26T19:17:10.121Z,7.40
2018-07-26T19:19:38.836Z,7.67
2018-07-26T19:22:08.249Z,8.30
2018-07-26T19:24:37.365Z,8.00
2018-07-26T19:27:06.040Z,8.63
2018-07-26T19:29:35.152Z,7.80
2018-07-26T19:32:03.704Z,8.07
2018-07-26T19:34:32.327Z,8.80
2018-07-26T19:37:00.968Z,8.43
2018-07-26T19:39:29.525Z,8.07
2018-07-26T19:41:58.162Z,8.43
2018-07-26T19:44:26.815Z,8.10
2018-07-26T19:46:55.483Z,8.60
2018-07-26T19:49:24.089Z,7.90
2018-07-26T19:51:52.764Z,8.23
2018-07-26T19:54:21.477Z,7.90
2018-07-26T19:56:50.071Z,7.73
2018-07-26T19:59:18.696Z,8.07
2018-07-26T20:01:47.328Z,8.20
2018-07-26T20:04:15.967Z,8.30
2018-07-26T20:06:45.269Z,8.00
2018-07-26T20:09:19.664Z,7.23
2018-07-26T20:11:48.383Z,8.00
2018-07-26T20:14:17.236Z,9.80
2018-07-26T20:16:45.868Z,8.03
2018-07-26T20:19:15.604Z,8.40
2018-07-26T20:21:44.164Z,7.97
2018-07-26T20:24:12.853Z,8.17
2018-07-26T20:26:41.874Z,7.70
2018-07-26T20:29:10.740Z,7.80
2018-07-26T20:31:39.428Z,8.13
2018-07-26T20:34:08.044Z,7.73
2018-07-26T20:36:36.731Z,8.33
2018-07-26T20:39:08.895Z,7.83
2018-07-26T20:41:38.506Z,7.30
2018-07-26T20:44:07.121Z,8.17
2018-07-26T20:46:35.864Z,7.90
2018-07-26T20:49:04.502Z,8.77
2018-07-26T20:51:33.191Z,8.40
2018-07-26T20:54:01.788Z,7.53
2018-07-26T20:56:30.381Z,7.87
2018-07-26T20:58:58.966Z,9.23
2018-07-26T21:01:27.537Z,8.90
2018-07-26T21:03:56.140Z,8.80
2018-07-26T21:06:24.747Z,7.60
2018-07-26T21:08:53.367Z,7.27
2018-07-26T21:11:22.211Z,8.23
2018-07-26T21:13:51.142Z,7.70
2018-07-26T21:16:20.076Z,7.30
2018-07-26T21:18:48.674Z,6.97
2018-07-26T21:21:17.342Z,8.10
2018-07-26T21:23:46.750Z,8.70
2018-07-26T21:26:15.364Z,8.50
2018-07-26T21:28:43.993Z,8.80
2018-07-26T21:31:13.120Z,8.93
2018-07-26T21:33:41.785Z,7.93
2018-07-26T21:36:10.376Z,8.30
2018-07-26T21:38:39.230Z,9.07
2018-07-26T21:41:07.995Z,10.60
2018-07-26T21:43:36.698Z,9.70
2018-07-26T21:46:05.308Z,7.23
2018-07-26T21:48:33.959Z,8.70
2018-07-26T21:51:02.573Z,7.50
2018-07-26T21:53:31.132Z,8.90
2018-07-26T21:55:59.917Z,7.97
2018-07-26T21:58:28.544Z,7.40
2018-07-26T22:00:57.659Z,7.30
2018-07-26T22:03:28.841Z,8.00
2018-07-26T22:05:58.297Z,7.27
2018-07-26T22:08:28.037Z,7.07
2018-07-26T22:10:56.623Z,7.03
2018-07-26T22:13:25.329Z,7.23
2018-07-26T22:15:54.179Z,5.70
2018-07-26T22:18:23.330Z,8.30
2018-07-26T22:20:52.353Z,7.83
2018-07-26T22:23:21.059Z,7.43
2018-07-26T22:25:51.329Z,6.50
2018-07-26T22:28:20.238Z,7.13
2018-07-26T22:30:49.432Z,7.03
2018-07-26T22:33:18.000Z,7.13
2018-07-26T22:35:46.581Z,6.10
2018-07-26T22:38:15.195Z,8.10
2018-07-26T22:40:43.797Z,6.67
2018-07-26T22:43:12.668Z,7.30
2018-07-26T22:45:41.403Z,6.00
2018-07-26T22:48:10.059Z,7.50
2018-07-26T22:50:38.782Z,6.30
2018-07-26T22:53:07.499Z,6.83
2018-07-26T22:55:36.180Z,7.00
2018-07-26T22:58:04.999Z,6.50
2018-07-26T23:00:33.904Z,6.50
2018-07-26T23:03:02.601Z,7.07
2018-07-26T23:05:31.519Z,7.00
2018-07-26T23:08:00.524Z,7.80
2018-07-26T23:10:29.128Z,6.90
2018-07-26T23:12:57.844Z,7.40
2018-07-26T23:15:26.933Z,6.23
2018-07-26T23:17:55.501Z,6.13
2018-07-26T23:20:24.506Z,6.30
2018-07-26T23:22:54.666Z,6.13
2018-07-26T23:25:23.464Z,6.10
2018-07-26T23:27:52.059Z,7.43
2018-07-26T23:30:20.933Z,6.20
2018-07-26T23:32:49.504Z,6.77
2018-07-26T23:35:19.532Z,6.00
2018-07-26T23:37:49.126Z,5.77
2018-07-26T23:40:17.880Z,6.70
2018-07-26T23:42:46.421Z,7.13
2018-07-26T23:45:16.713Z,9.60
2018-07-26T23:47:45.281Z,6.97
2018-07-26T23:50:13.923Z,7.63
2018-07-26T23:52:42.521Z,7.50
2018-07-26T23:55:11.752Z,6.60
2018-07-26T23:57:40.308Z,6.60
